Time;durP1;ratioP1;P1;durP2;ratioP2;P2;SDS_P1;SDS_P2;PMS_P1;PMS_P2;Temp;Humidity;BMP_temperature;BMP_pressure;BME280_temperature;BME280_humidity;BME280_pressure;Samples;Min_cycle;Max_cycle;Signal;HPM_P1;HPM_P2
2022/08/08 00:01:22;;;;;;;5.72;3.90;;;16.40;99.90;;;;;;5008199;28;20407;-82
2022/08/08 00:04:44;;;;;;;6.13;3.92;;;16.50;99.90;;;;;;5022786;28;20512;-82
2022/08/08 00:08:11;;;;;;;5.47;3.13;;;16.50;99.90;;;;;;5040995;28;20195;-82
2022/08/08 00:11:25;;;;;;;4.07;3.53;;;16.40;99.90;;;;;;4958548;28;20237;-83
2022/08/08 00:14:29;;;;;;;4.50;3.40;;;16.40;99.90;;;;;;5035104;28;20219;-81
2022/08/08 00:17:25;;;;;;;4.35;3.55;;;16.30;99.90;;;;;;5023815;28;20906;-82
2022/08/08 00:20:12;;;;;;;5.60;3.97;;;16.30;99.90;;;;;;5014984;28;20411;-82
2022/08/08 00:23:03;;;;;;;6.97;3.10;;;16.30;99.90;;;;;;5016696;28;20227;-82
2022/08/08 00:25:53;;;;;;;3.93;2.80;;;16.20;99.90;;;;;;5018306;28;20223;-82
2022/08/08 00:28:43;;;;;;;4.13;3.13;;;16.20;99.90;;;;;;5022446;28;20199;-82
2022/08/08 00:31:34;;;;;;;5.23;3.50;;;16.20;99.90;;;;;;5011750;28;20254;-82
2022/08/08 00:37:55;;;;;;;5.07;3.67;;;16.20;99.90;;;;;;5031780;28;20195;-82
2022/08/08 00:41:07;;;;;;;7.80;3.17;;;16.10;99.90;;;;;;5030414;28;20207;-81
2022/08/08 00:44:31;;;;;;;4.57;3.37;;;16.00;99.90;;;;;;5016069;28;20188;-81
2022/08/08 00:47:43;;;;;;;5.03;4.10;;;16.00;99.90;;;;;;5017558;28;20838;-81
2022/08/08 00:50:34;;;;;;;5.37;3.93;;;15.90;99.90;;;;;;5020440;28;20446;-82
2022/08/08 00:53:22;;;;;;;5.75;4.00;;;16.00;99.90;;;;;;5020519;28;20425;-82
2022/08/08 00:56:55;;;;;;;4.13;3.67;;;16.00;99.90;;;;;;5017794;28;20425;-82
2022/08/08 01:00:06;;;;;;;5.05;3.90;;;16.00;99.90;;;;;;5031698;28;20488;-81
2022/08/08 01:03:28;;;;;;;7.17;4.03;;;16.00;99.90;;;;;;5019447;28;20517;-82
2022/08/08 01:06:25;;;;;;;7.25;3.88;;;16.00;99.90;;;;;;5034026;28;20472;-82
2022/08/08 01:09:12;;;;;;;5.85;3.90;;;16.00;99.90;;;;;;5022957;28;20437;-82
2022/08/08 01:12:16;;;;;;;5.20;4.00;;;15.90;99.90;;;;;;5030880;28;20442;-82
2022/08/08 01:15:38;;;;;;;5.28;3.88;;;15.90;99.90;;;;;;5018269;28;20510;-82
2022/08/08 01:18:51;;;;;;;5.50;4.15;;;15.90;99.90;;;;;;5021383;28;20437;-82
2022/08/08 01:21:51;;;;;;;5.07;3.50;;;15.90;99.90;;;;;;5018267;28;20242;-81
2022/08/08 01:25:01;;;;;;;4.63;3.92;;;15.70;99.90;;;;;;5016789;28;20853;-81
2022/08/08 01:28:34;;;;;;;4.43;3.60;;;15.70;99.90;;;;;;5024054;28;20203;-82
2022/08/08 01:31:21;;;;;;;4.15;3.58;;;15.60;99.90;;;;;;4968006;28;20591;-82
2022/08/08 01:34:39;;;;;;;4.10;3.63;;;15.50;99.90;;;;;;5020543;28;20234;-82
2022/08/08 01:37:49;;;;;;;4.53;3.33;;;15.50;99.90;;;;;;5028626;28;20580;-82
2022/08/08 01:40:59;;;;;;;5.35;4.32;;;15.40;99.90;;;;;;5035927;28;20423;-82
2022/08/08 01:43:56;;;;;;;5.57;4.32;;;15.40;99.90;;;;;;5041290;28;20429;-82
2022/08/08 01:46:51;;;;;;;6.60;4.43;;;15.40;99.90;;;;;;5018526;28;20481;-82
2022/08/08 01:50:13;;;;;;;6.40;4.40;;;15.40;99.90;;;;;;5022759;28;20422;-83
2022/08/08 01:53:23;;;;;;;4.93;4.20;;;15.30;99.90;;;;;;5021868;28;20406;-82
2022/08/08 01:56:32;;;;;;;4.60;3.90;;;15.40;99.90;;;;;;5026956;28;20517;-80
2022/08/08 01:59:45;;;;;;;5.40;4.10;;;15.30;99.90;;;;;;5031861;28;20401;-81
2022/08/08 02:02:56;;;;;;;5.10;4.28;;;15.30;99.90;;;;;;5019906;28;20518;-82
2022/08/08 02:06:08;;;;;;;7.32;4.57;;;15.30;99.90;;;;;;5023451;28;20412;-81
2022/08/08 02:09:18;;;;;;;5.50;4.60;;;15.20;99.90;;;;;;5030399;28;20546;-81
2022/08/08 02:12:13;;;;;;;4.72;4.18;;;15.20;99.90;;;;;;5028419;28;20422;-81
2022/08/08 02:15:08;;;;;;;5.72;4.40;;;15.20;99.90;;;;;;5030797;28;20488;-82
2022/08/08 02:18:13;;;;;;;6.57;4.63;;;15.10;99.90;;;;;;5017089;28;20429;-80
2022/08/08 02:24:54;;;;;;;8.20;5.00;;;15.00;99.90;;;;;;5031988;28;20430;-81
2022/08/08 02:27:58;;;;;;;7.28;5.35;;;15.00;99.90;;;;;;5018989;28;20414;-81
2022/08/08 02:31:36;;;;;;;5.40;4.90;;;14.90;99.90;;;;;;5015209;28;20448;-81
2022/08/08 02:34:39;;;;;;;5.20;4.70;;;14.80;99.90;;;;;;5016426;28;20422;-82
2022/08/08 02:37:37;;;;;;;8.17;5.10;;;14.80;99.90;;;;;;5025470;28;20461;-82
2022/08/08 02:40:41;;;;;;;7.03;5.38;;;14.80;99.90;;;;;;5023896;28;20442;-81
2022/08/08 02:43:35;;;;;;;6.13;5.13;;;14.80;99.90;;;;;;5013626;28;20827;-82
2022/08/08 02:46:43;;;;;;;4.90;4.40;;;14.70;99.90;;;;;;5025575;28;20460;-82
2022/08/08 02:49:57;;;;;;;8.95;5.18;;;14.70;99.90;;;;;;5038588;28;20413;-82
2022/08/08 02:53:14;;;;;;;6.60;5.17;;;14.70;99.90;;;;;;5037687;28;20414;-82
2022/08/08 02:56:02;;;;;;;7.10;4.80;;;14.70;99.90;;;;;;5023474;28;20450;-82
2022/08/08 02:59:25;;;;;;;4.85;4.35;;;14.70;99.90;;;;;;5022018;28;21156;-82
2022/08/08 03:02:24;;;;;;;6.13;5.07;;;14.70;99.90;;;;;;5024890;28;20406;-82
2022/08/08 03:05:40;;;;;;;6.40;5.10;;;14.70;99.90;;;;;;5038832;28;20442;-82
2022/08/08 03:08:52;;;;;;;5.63;4.85;;;14.70;99.90;;;;;;5030688;28;20436;-82
2022/08/08 03:11:55;;;;;;;7.05;4.90;;;14.60;99.90;;;;;;5025193;28;20469;-82
2022/08/08 03:15:19;;;;;;;6.75;4.80;;;14.50;99.90;;;;;;5023133;28;20425;-82
2022/08/08 03:18:28;;;;;;;5.80;5.05;;;14.40;99.90;;;;;;5017892;28;20435;-82
2022/08/08 03:21:12;;;;;;;5.47;4.97;;;14.40;99.90;;;;;;5019390;28;20829;-82
2022/08/08 03:23:57;;;;;;;5.45;4.90;;;14.40;99.90;;;;;;5030093;28;20418;-82
2022/08/08 03:26:47;;;;;;;5.88;5.28;;;14.40;99.90;;;;;;5039564;28;20457;-82
2022/08/08 03:29:37;;;;;;;5.90;5.30;;;14.30;99.90;;;;;;5016516;28;20414;-82
2022/08/08 03:35:26;;;;;;;7.20;5.32;;;14.30;99.90;;;;;;5034185;28;20473;-82
2022/08/08 03:38:10;;;;;;;6.60;5.43;;;14.20;99.90;;;;;;5028187;28;20936;-82
2022/08/08 03:40:55;;;;;;;6.10;5.45;;;14.20;99.90;;;;;;5021187;28;20416;-82
2022/08/08 03:43:40;;;;;;;11.95;5.50;;;14.20;99.90;;;;;;5032882;28;20432;-82
2022/08/08 03:46:27;;;;;;;5.60;5.07;;;14.10;99.90;;;;;;5034557;28;20423;-82
2022/08/08 03:49:22;;;;;;;5.78;5.20;;;14.00;99.90;;;;;;5019595;28;20413;-83
2022/08/08 03:52:09;;;;;;;7.72;5.80;;;14.00;99.90;;;;;;5025972;28;20441;-82
2022/08/08 03:54:53;;;;;;;6.97;5.35;;;14.00;99.90;;;;;;5031556;28;20425;-83
2022/08/08 03:57:42;;;;;;;7.15;5.80;;;14.00;99.90;;;;;;5040779;28;20417;-83
2022/08/08 04:00:29;;;;;;;6.90;5.38;;;14.00;99.90;;;;;;5020164;28;20418;-82
2022/08/08 04:03:13;;;;;;;8.98;5.57;;;13.90;99.90;;;;;;5024992;28;20410;-82
2022/08/08 04:06:02;;;;;;;8.00;5.47;;;13.90;99.90;;;;;;5021517;28;20429;-82
2022/08/08 04:08:47;;;;;;;6.40;5.50;;;13.80;99.90;;;;;;5043198;28;20406;-82
2022/08/08 04:11:31;;;;;;;6.45;5.50;;;13.80;99.90;;;;;;5021895;28;20468;-82
2022/08/08 04:14:16;;;;;;;6.00;4.67;;;13.70;99.90;;;;;;5031363;28;20249;-79
2022/08/08 04:17:01;;;;;;;5.00;4.43;;;13.60;99.90;;;;;;5032582;28;20410;-79
2022/08/08 04:19:45;;;;;;;5.50;4.90;;;13.60;99.90;;;;;;5025381;28;20262;-80
2022/08/08 04:22:29;;;;;;;;;;;13.50;99.90;;;;;;5017690;28;20114;-80
2022/08/08 04:25:13;;;;;;;;;;;13.50;99.90;;;;;;5022732;28;19963;-80
2022/08/08 04:27:57;;;;;;;;;;;13.40;99.90;;;;;;5023512;28;19916;-80
2022/08/08 04:30:41;;;;;;;;;;;13.40;99.90;;;;;;5018885;28;20059;-80
2022/08/08 04:33:26;;;;;;;;;;;13.40;99.90;;;;;;5029621;28;19916;-80
2022/08/08 04:36:10;;;;;;;;;;;13.40;99.90;;;;;;5021826;28;19970;-80
2022/08/08 04:38:54;;;;;;;;;;;13.30;99.90;;;;;;5039816;28;19971;-80
2022/08/08 04:41:38;;;;;;;;;;;13.30;99.90;;;;;;5023168;28;19959;-80
2022/08/08 04:44:23;;;;;;;;;;;13.30;99.90;;;;;;5028270;28;19944;-80
2022/08/08 04:47:08;;;;;;;;;;;13.20;99.90;;;;;;5024984;28;19920;-80
2022/08/08 04:49:52;;;;;;;;;;;13.20;99.90;;;;;;5035330;28;19919;-80
2022/08/08 04:52:36;;;;;;;;;;;13.20;99.90;;;;;;5022332;28;20283;-80
2022/08/08 04:55:21;;;;;;;;;;;13.20;99.90;;;;;;5021086;28;19920;-80
2022/08/08 04:58:05;;;;;;;;;;;13.20;99.90;;;;;;5023938;28;19916;-80
2022/08/08 05:00:49;;;;;;;;;;;13.20;99.90;;;;;;5021569;28;19920;-80
2022/08/08 05:03:33;;;;;;;;;;;13.20;99.90;;;;;;5021544;28;19924;-80
2022/08/08 05:06:18;;;;;;;;;;;13.20;99.90;;;;;;5023779;28;19927;-80
2022/08/08 05:09:02;;;;;;;;;;;13.20;99.90;;;;;;5021040;28;19916;-80
2022/08/08 05:11:48;;;;;;;;;;;13.30;99.90;;;;;;5033682;28;20003;-80
2022/08/08 05:14:33;;;;;;;;;;;13.30;99.90;;;;;;5024382;28;20020;-81
2022/08/08 05:17:17;;;;;;;;;;;13.30;99.90;;;;;;5023571;28;19920;-80
2022/08/08 05:20:01;;;;;;;;;;;13.40;99.90;;;;;;5026494;28;19916;-80
2022/08/08 05:22:46;;;;;;;;;;;13.40;99.90;;;;;;5026629;28;19962;-80
2022/08/08 05:25:31;;;;;;;;;;;13.50;99.90;;;;;;5019760;28;20008;-80
2022/08/08 05:28:15;;;;;;;;;;;13.50;99.90;;;;;;5022814;28;19921;-80
2022/08/08 05:31:00;;;;;;;;;;;13.60;99.90;;;;;;5021859;28;20510;-80
2022/08/08 05:33:44;;;;;;;;;;;13.70;99.90;;;;;;5023658;28;19955;-81
2022/08/08 05:36:29;;;;;;;;;;;13.70;99.90;;;;;;5032929;28;19920;-80
2022/08/08 05:39:17;;;;;;;;;;;13.70;99.90;;;;;;5020560;28;19976;-80
2022/08/08 05:42:02;;;;;;;;;;;13.80;99.90;;;;;;5024517;28;19920;-78
2022/08/08 05:44:47;;;;;;;;;;;13.90;99.90;;;;;;5011167;28;20062;-78
2022/08/08 05:47:32;;;;;;;;;;;13.90;99.90;;;;;;5013638;28;19968;-79
2022/08/08 05:50:17;;;;;;;;;;;14.00;99.90;;;;;;5028400;28;20322;-79
2022/08/08 05:53:01;;;;;;;;;;;14.10;99.90;;;;;;5016901;28;19943;-79
2022/08/08 05:55:45;;;;;;;;;;;14.20;99.90;;;;;;5016806;28;20004;-80
2022/08/08 05:58:31;;;;;;;;;;;14.30;99.90;;;;;;5026016;28;20000;-80
2022/08/08 06:01:15;;;;;;;;;;;14.30;99.90;;;;;;5016030;28;20015;-80
2022/08/08 06:04:03;;;;;;;;;;;14.50;99.90;;;;;;5028303;28;19916;-80
2022/08/08 06:06:48;;;;;;;;;;;14.60;99.90;;;;;;5014148;28;19932;-80
2022/08/08 06:09:36;;;;;;;;;;;14.70;99.90;;;;;;5017226;28;19936;-80
2022/08/08 06:12:20;;;;;;;;;;;14.70;99.90;;;;;;5019923;28;19916;-80
2022/08/08 06:15:06;;;;;;;;;;;14.80;99.90;;;;;;5031809;28;20320;-80
2022/08/08 06:17:51;;;;;;;;;;;14.90;99.90;;;;;;5023271;28;19987;-81
2022/08/08 06:20:36;;;;;;;;;;;15.00;99.90;;;;;;5019516;28;19920;-80
2022/08/08 06:23:21;;;;;;;;;;;15.10;99.90;;;;;;5021781;28;19998;-81
2022/08/08 06:26:08;;;;;;;;;;;15.20;99.90;;;;;;5024850;28;19916;-81
2022/08/08 06:28:57;;;;;;;;;;;15.30;99.90;;;;;;5020830;28;19919;-80
2022/08/08 06:31:42;;;;;;;;;;;15.40;99.90;;;;;;5016084;28;20280;-80
2022/08/08 06:34:28;;;;;;;;;;;15.50;99.90;;;;;;5019034;28;19936;-80
2022/08/08 06:37:13;;;;;;;;;;;15.60;99.90;;;;;;5015462;28;19920;-80
2022/08/08 06:39:59;;;;;;;;;;;15.70;99.90;;;;;;5013806;28;20349;-81
2022/08/08 06:42:56;;;;;;;;;;;15.80;99.90;;;;;;5001904;28;19928;-74
2022/08/08 06:45:40;;;;;;;;;;;15.90;99.90;;;;;;5023336;28;19916;-74
2022/08/08 06:48:25;;;;;;;;;;;16.00;99.90;;;;;;5007673;28;19935;-74
2022/08/08 06:51:09;;;;;;;;;;;16.10;99.90;;;;;;5006192;28;19959;-74
2022/08/08 06:53:55;;;;;;;;;;;16.30;99.90;;;;;;4994858;28;19933;-74
2022/08/08 06:56:39;;;;;;;;;;;16.40;99.90;;;;;;4990434;28;19963;-73
2022/08/08 06:59:23;;;;;;;;;;;16.50;99.90;;;;;;4993057;28;19964;-73
2022/08/08 07:02:11;;;;;;;;;;;16.60;99.90;;;;;;4995791;28;20060;-74
2022/08/08 07:05:00;;;;;;;;;;;16.70;99.90;;;;;;4994550;28;19967;-74
2022/08/08 07:07:48;;;;;;;;;;;16.80;99.90;;;;;;4993893;28;20037;-74
2022/08/08 07:10:34;;;;;;;;;;;16.90;99.90;;;;;;4991266;28;19933;-74
2022/08/08 07:13:18;;;;;;;;;;;17.00;99.90;;;;;;4996144;28;19973;-74
2022/08/08 07:16:03;;;;;;;;;;;17.00;99.90;;;;;;4990686;28;20047;-74
2022/08/08 07:19:10;;;;;;;;;;;17.10;99.90;;;;;;4991399;28;20389;-74
2022/08/08 07:21:56;;;;;;;;;;;17.20;99.90;;;;;;4993521;28;19971;-73
2022/08/08 07:24:46;;;;;;;;;;;17.30;99.90;;;;;;4989008;28;19915;-74
2022/08/08 07:27:35;;;;;;;;;;;17.30;99.90;;;;;;5009513;28;19968;-74
2022/08/08 07:30:19;;;;;;;;;;;17.40;99.90;;;;;;4992918;28;19916;-74
2022/08/08 07:33:04;;;;;;;;;;;17.50;99.90;;;;;;4996359;28;20005;-74
2022/08/08 07:35:48;;;;;;;;;;;17.60;99.90;;;;;;5009028;28;19959;-74
2022/08/08 07:38:34;;;;;;;;;;;17.60;99.90;;;;;;4996200;28;19975;-74
2022/08/08 07:41:18;;;;;;;;;;;17.70;99.90;;;;;;4996596;28;19920;-74
2022/08/08 07:44:04;;;;;;;;;;;17.80;99.90;;;;;;4997666;28;20358;-74
2022/08/08 07:46:48;;;;;;;;;;;17.80;99.90;;;;;;5008282;28;20336;-75
2022/08/08 07:49:33;;;;;;;;;;;17.90;99.90;;;;;;5006288;28;19955;-75
2022/08/08 07:52:17;;;;;;;;;;;18.00;99.90;;;;;;5004414;28;19916;-74
2022/08/08 07:55:09;;;;;;;;;;;18.00;99.90;;;;;;5009011;28;19923;-74
2022/08/08 07:58:12;;;;;;;;;;;18.00;99.90;;;;;;4990975;28;19933;-74
2022/08/08 08:01:00;;;;;;;;;;;18.20;99.90;;;;;;5005765;28;19968;-75
2022/08/08 08:03:54;;;;;;;;;;;18.30;99.90;;;;;;5005440;28;19956;-75
2022/08/08 08:06:39;;;;;;;;;;;18.20;99.90;;;;;;4991104;28;19960;-75
2022/08/08 08:09:25;;;;;;;;;;;18.30;99.90;;;;;;5007154;28;19916;-74
2022/08/08 08:12:10;;;;;;;;;;;18.40;99.90;;;;;;4992664;28;19917;-74
2022/08/08 08:15:00;;;;;;;;;;;18.50;99.90;;;;;;5002622;28;20400;-75
2022/08/08 08:17:47;;;;;;;6.38;2.50;;;18.50;99.90;;;;;;4991041;28;21037;-74
2022/08/08 08:20:33;;;;;;;6.07;2.50;;;18.60;99.90;;;;;;5003841;28;20633;-74
2022/08/08 08:23:17;;;;;;;5.90;2.13;;;18.60;99.90;;;;;;5003054;28;20227;-74
2022/08/08 08:26:02;;;;;;;6.57;2.30;;;18.70;99.90;;;;;;5006482;28;20557;-74
2022/08/08 08:28:47;;;;;;;3.97;2.10;;;18.70;99.90;;;;;;4993627;28;20320;-74
2022/08/08 08:31:31;;;;;;;4.30;2.27;;;18.70;99.90;;;;;;5006328;28;20212;-74
2022/08/08 08:34:16;;;;;;;6.37;2.80;;;18.80;99.90;;;;;;4990691;28;20236;-75
2022/08/08 08:37:03;;;;;;;4.57;2.40;;;18.80;99.90;;;;;;4992090;28;20284;-74
2022/08/08 08:39:47;;;;;;;2.70;1.80;;;18.90;99.90;;;;;;4994262;28;20264;-75
2022/08/08 08:42:32;;;;;;;5.70;2.17;;;18.90;99.90;;;;;;5008516;28;20319;-74
2022/08/08 08:45:16;;;;;;;3.47;2.00;;;19.00;99.90;;;;;;5002486;28;20203;-73
2022/08/08 08:48:01;;;;;;;2.13;1.92;;;19.00;99.90;;;;;;4988285;28;20288;-73
2022/08/08 08:50:49;;;;;;;6.10;2.10;;;19.10;99.90;;;;;;4999788;28;20260;-75
2022/08/08 08:53:37;;;;;;;3.77;2.30;;;19.20;99.90;;;;;;4989947;28;20180;-74
2022/08/08 08:56:24;;;;;;;4.10;1.90;;;19.20;99.90;;;;;;4989873;28;20208;-73
2022/08/08 08:59:10;;;;;;;4.00;1.77;;;19.30;99.90;;;;;;4987832;28;20259;-75
2022/08/08 09:01:56;;;;;;;3.80;1.90;;;19.50;99.90;;;;;;4986321;28;20725;-74
2022/08/08 09:04:42;;;;;;;5.23;1.83;;;19.60;99.90;;;;;;5005812;28;20187;-74
2022/08/08 09:07:28;;;;;;;2.53;1.60;;;19.70;99.90;;;;;;4988555;28;20195;-74
2022/08/08 09:10:14;;;;;;;4.70;2.08;;;19.80;99.90;;;;;;5006592;28;20223;-74
2022/08/08 09:13:00;;;;;;;7.28;1.95;;;19.80;99.90;;;;;;4992084;28;20227;-74
2022/08/08 09:15:44;;;;;;;5.15;2.30;;;19.90;99.90;;;;;;5006803;28;20423;-75
2022/08/08 09:18:29;;;;;;;4.97;2.63;;;20.00;99.90;;;;;;4988457;28;20571;-74
2022/08/08 09:21:14;;;;;;;5.15;2.67;;;20.10;99.90;;;;;;5005791;28;20470;-74
2022/08/08 09:23:59;;;;;;;5.45;2.45;;;20.10;99.90;;;;;;4990509;28;20492;-74
2022/08/08 09:26:58;;;;;;;3.20;2.55;;;20.10;99.90;;;;;;4992492;28;21117;-75
2022/08/08 09:29:51;;;;;;;5.18;2.92;;;20.10;99.90;;;;;;4985801;28;20414;-74
2022/08/08 09:32:39;;;;;;;4.60;2.47;;;20.20;99.90;;;;;;4988124;28;20458;-75
2022/08/08 09:35:29;;;;;;;4.70;2.80;;;20.30;99.90;;;;;;5004410;28;20516;-75
2022/08/08 09:38:29;;;;;;;5.32;2.53;;;20.50;99.90;;;;;;4986738;28;20420;-75
2022/08/08 09:41:19;;;;;;;6.00;2.60;;;20.50;99.90;;;;;;4987018;28;20427;-75
2022/08/08 09:44:27;;;;;;;4.47;2.50;;;20.60;99.90;;;;;;4986078;28;20778;-76
2022/08/08 09:47:13;;;;;;;5.78;2.58;;;20.60;99.90;;;;;;4986530;28;20436;-76
2022/08/08 09:50:01;;;;;;;5.28;2.58;;;20.70;99.90;;;;;;4979317;28;20439;-75
2022/08/08 09:52:51;;;;;;;6.85;2.65;;;20.80;99.90;;;;;;4982654;28;20968;-76
2022/08/08 09:55:36;;;;;;;4.63;2.10;;;20.90;99.90;;;;;;5001626;28;20819;-76
2022/08/08 09:58:21;;;;;;;4.85;2.40;;;20.80;99.90;;;;;;4986344;28;20500;-76
2022/08/08 10:01:09;;;;;;;3.63;2.47;;;20.90;99.90;;;;;;4983889;28;20413;-76
2022/08/08 10:03:56;;;;;;;5.20;2.60;;;20.90;99.90;;;;;;4981757;28;20422;-76
2022/08/08 10:06:46;;;;;;;5.25;2.97;;;20.90;99.90;;;;;;4993473;28;20431;-76
2022/08/08 10:09:32;;;;;;;6.65;3.13;;;21.00;99.90;;;;;;5004405;28;20515;-75
2022/08/08 10:12:16;;;;;;;5.72;3.13;;;21.00;99.90;;;;;;5003428;28;20444;-76
2022/08/08 10:15:03;;;;;;;5.18;2.90;;;21.10;99.90;;;;;;4993097;28;20518;-76
2022/08/08 10:17:51;;;;;;;3.38;2.72;;;21.20;99.90;;;;;;4984761;28;20545;-76
2022/08/08 10:20:45;;;;;;;4.90;2.72;;;21.20;99.90;;;;;;4992024;28;20415;-77
2022/08/08 10:23:46;;;;;;;6.55;2.70;;;21.30;99.90;;;;;;4998514;28;20447;-76
2022/08/08 10:26:46;;;;;;;4.78;2.60;;;21.40;99.90;;;;;;4992083;28;20428;-76
2022/08/08 10:30:00;;;;;;;10.20;2.70;;;21.50;99.90;;;;;;4999303;28;20215;-77
2022/08/08 10:32:54;;;;;;;5.47;2.58;;;21.50;99.90;;;;;;5007883;28;20203;-76
2022/08/08 10:35:39;;;;;;;6.90;2.72;;;21.50;99.90;;;;;;5005883;28;20219;-76
2022/08/08 10:38:25;;;;;;;4.45;2.35;;;21.50;99.90;;;;;;4993736;28;20199;-76
2022/08/08 10:41:16;;;;;;;6.55;2.30;;;21.40;99.90;;;;;;4990209;28;20231;-76
2022/08/08 10:44:01;;;;;;;4.07;2.20;;;21.40;99.90;;;;;;4987105;28;20188;-77
2022/08/08 10:46:45;;;;;;;3.28;2.28;;;21.30;99.90;;;;;;4988746;28;20583;-75
2022/08/08 10:49:29;;;;;;;8.85;2.75;;;21.30;99.90;;;;;;4981877;28;20219;-78
2022/08/08 10:52:35;;;;;;;3.42;2.13;;;21.20;99.90;;;;;;4995080;28;20319;-79
2022/08/08 10:55:19;;;;;;;4.80;2.83;;;21.20;99.90;;;;;;4996953;28;20254;-79
2022/08/08 10:58:06;;;;;;;3.42;2.10;;;21.20;99.90;;;;;;4993708;28;20245;-80
2022/08/08 11:00:50;;;;;;;7.43;1.95;;;21.30;99.90;;;;;;5005104;28;20316;-79
2022/08/08 11:03:43;;;;;;;2.58;1.80;;;21.30;99.90;;;;;;5011641;28;20196;-81
2022/08/08 11:06:33;;;;;;;6.85;2.20;;;21.50;99.90;;;;;;5010757;28;20189;-79
2022/08/08 11:09:17;;;;;;;1.85;1.67;;;21.50;99.90;;;;;;4992623;28;20188;-79
2022/08/08 11:12:01;;;;;;;4.22;2.10;;;21.60;99.90;;;;;;4995085;28;20187;-79
2022/08/08 11:14:58;;;;;;;3.15;2.15;;;21.50;99.90;;;;;;4993258;28;20243;-79
2022/08/08 11:17:44;;;;;;;5.20;2.10;;;21.50;99.90;;;;;;4993205;28;20217;-78
2022/08/08 11:20:28;;;;;;;5.18;1.77;;;21.60;99.90;;;;;;5003492;28;20264;-77
2022/08/08 11:23:15;;;;;;;6.25;2.30;;;21.60;99.90;;;;;;4992749;28;20188;-78
2022/08/08 11:26:04;;;;;;;2.75;1.90;;;21.50;99.90;;;;;;4993238;28;20238;-78
2022/08/08 11:28:50;;;;;;;2.83;2.10;;;21.60;99.90;;;;;;5006604;28;20204;-77
2022/08/08 11:31:39;;;;;;;2.13;1.80;;;21.60;99.90;;;;;;5004495;28;20216;-79
2022/08/08 11:34:26;;;;;;;4.15;1.65;;;21.70;99.90;;;;;;4993460;28;22171;-77
2022/08/08 11:37:10;;;;;;;4.05;1.85;;;21.80;99.90;;;;;;4990345;28;20192;-77
2022/08/08 11:39:56;;;;;;;3.25;2.00;;;21.80;99.90;;;;;;5009260;28;20215;-78
2022/08/08 11:42:42;;;;;;;4.55;2.30;;;21.80;99.90;;;;;;4988718;28;20793;-78
2022/08/08 11:45:27;;;;;;;3.83;1.70;;;21.80;99.90;;;;;;4994087;28;20204;-78
2022/08/08 11:48:14;;;;;;;5.82;2.03;;;21.80;99.90;;;;;;4991606;28;20264;-78
2022/08/08 11:50:59;;;;;;;5.25;1.80;;;21.80;99.90;;;;;;4997020;28;20223;-78
2022/08/08 11:53:44;;;;;;;3.58;1.85;;;21.80;99.90;;;;;;5009195;28;20613;-78
2022/08/08 11:56:36;;;;;;;4.97;1.80;;;21.80;99.90;;;;;;4991661;28;20216;-78
2022/08/08 11:59:31;;;;;;;4.20;2.00;;;21.80;99.90;;;;;;4990011;28;20672;-78
2022/08/08 12:02:16;;;;;;;3.20;1.92;;;21.90;99.90;;;;;;4992266;28;20188;-80
2022/08/08 12:05:07;;;;;;;4.78;2.00;;;21.80;99.90;;;;;;5005576;28;20227;-78
2022/08/08 12:07:53;;;;;;;5.28;1.70;;;21.80;99.90;;;;;;4991646;28;20192;-80
2022/08/08 12:10:51;;;;;;;4.05;2.05;;;21.90;99.90;;;;;;4993326;28;20263;-79
2022/08/08 12:13:35;;;;;;;4.63;1.90;;;21.90;99.90;;;;;;4990314;28;20861;-78
2022/08/08 12:16:20;;;;;;;4.38;1.80;;;21.90;99.90;;;;;;5008154;28;20291;-78
2022/08/08 12:19:10;;;;;;;4.28;1.50;;;22.00;99.90;;;;;;5009926;28;20556;-79
2022/08/08 12:22:04;;;;;;;8.43;2.10;;;22.00;99.90;;;;;;5007554;28;20204;-79
2022/08/08 12:24:49;;;;;;;3.97;2.00;;;22.00;99.90;;;;;;5006728;28;20196;-78
2022/08/08 12:27:41;;;;;;;3.10;1.60;;;22.10;99.90;;;;;;4992731;28;20184;-78
2022/08/08 12:30:29;;;;;;;5.32;1.90;;;22.10;99.90;;;;;;4988172;28;20240;-78
2022/08/08 12:33:24;;;;;;;2.60;1.88;;;22.20;99.90;;;;;;4993937;28;20212;-79
2022/08/08 12:36:15;;;;;;;5.60;1.92;;;22.20;99.90;;;;;;4989417;28;20251;-78
2022/08/08 12:38:59;;;;;;;2.95;1.70;;;22.30;99.90;;;;;;5008095;28;20188;-80
2022/08/08 12:41:44;;;;;;;2.47;1.15;;;22.40;99.90;;;;;;4993582;28;20219;-78
2022/08/08 12:44:30;;;;;;;2.88;1.35;;;22.40;99.90;;;;;;4995999;28;20324;-78
2022/08/08 12:47:15;;;;;;;2.17;1.30;;;22.50;99.90;;;;;;4997550;28;20184;-78
2022/08/08 12:49:59;;;;;;;3.17;1.20;;;22.50;99.90;;;;;;5008419;28;20227;-78
2022/08/08 12:52:52;;;;;;;2.13;1.52;;;22.50;99.90;;;;;;4997787;28;20188;-78
2022/08/08 12:55:36;;;;;;;2.22;1.35;;;22.60;99.90;;;;;;4993106;28;20203;-77
2022/08/08 12:58:22;;;;;;;1.13;1.00;;;22.60;99.90;;;;;;5009001;28;20195;-79
2022/08/08 13:01:10;;;;;;;4.05;1.35;;;22.70;99.90;;;;;;4987216;28;20223;-78
2022/08/08 13:03:54;;;;;;;2.50;1.15;;;22.80;99.90;;;;;;4997230;28;20242;-78
2022/08/08 13:06:38;;;;;;;4.40;1.55;;;22.80;99.90;;;;;;4994376;28;20222;-78
2022/08/08 13:09:29;;;;;;;2.72;1.45;;;22.90;99.90;;;;;;4992982;28;20665;-78
2022/08/08 13:12:33;;;;;;;2.55;1.42;;;22.90;99.90;;;;;;5013468;28;20577;-80
2022/08/08 13:15:21;;;;;;;2.63;1.20;;;22.80;99.90;;;;;;5007314;28;20250;-80
2022/08/08 13:18:05;;;;;;;2.30;1.30;;;22.80;99.90;;;;;;4995618;28;20680;-81
2022/08/08 13:20:50;;;;;;;1.77;1.13;;;22.90;99.90;;;;;;4993617;28;20228;-79
2022/08/08 13:23:34;;;;;;;3.17;1.10;;;22.90;99.90;;;;;;4992384;28;20352;-79
2022/08/08 13:26:19;;;;;;;2.55;1.20;;;22.90;99.90;;;;;;4996603;28;20184;-81
2022/08/08 13:29:12;;;;;;;4.75;1.08;;;22.90;99.90;;;;;;5005504;28;20636;-80
2022/08/08 13:32:01;;;;;;;5.97;1.60;;;22.90;99.90;;;;;;4988845;28;20313;-81
2022/08/08 13:34:49;;;;;;;2.85;1.52;;;22.90;99.90;;;;;;5001705;28;20191;-80
2022/08/08 13:37:34;;;;;;;1.98;1.27;;;23.00;99.90;;;;;;4995561;28;20196;-80
2022/08/08 13:40:18;;;;;;;2.80;0.95;;;23.10;99.90;;;;;;4992151;28;20224;-80
2022/08/08 13:43:03;;;;;;;1.95;1.10;;;23.20;99.90;;;;;;5002259;28;20255;-79
2022/08/08 13:45:48;;;;;;;2.20;1.17;;;23.30;99.90;;;;;;4992199;28;20248;-79
2022/08/08 13:48:45;;;;;;;2.65;1.00;;;23.20;99.90;;;;;;4997884;28;20188;-79
2022/08/08 13:51:30;;;;;;;2.17;1.00;;;23.20;99.90;;;;;;4994938;28;20219;-79
2022/08/08 13:54:21;;;;;;;2.05;0.85;;;23.10;99.90;;;;;;5006490;28;20207;-78
2022/08/08 13:57:08;;;;;;;2.60;0.80;;;23.10;99.90;;;;;;4997589;28;20243;-80
2022/08/08 14:00:14;;;;;;;2.70;0.77;;;23.00;99.90;;;;;;4992905;28;20232;-78
2022/08/08 14:03:00;;;;;;;3.70;1.00;;;23.10;99.90;;;;;;4991064;28;20192;-81
2022/08/08 14:05:45;;;;;;;3.28;0.95;;;23.10;99.90;;;;;;4991018;28;20216;-78
2022/08/08 14:08:29;;;;;;;3.17;0.90;;;23.00;99.90;;;;;;4992925;28;20184;-79
2022/08/08 14:11:21;;;;;;;4.05;1.00;;;23.00;99.90;;;;;;4996199;28;20203;-78
2022/08/08 14:14:05;;;;;;;1.88;1.08;;;22.90;99.90;;;;;;4993542;28;20703;-78
2022/08/08 14:16:49;;;;;;;3.17;1.00;;;22.80;99.90;;;;;;4990093;28;20189;-78
2022/08/08 14:19:37;;;;;;;4.35;1.27;;;22.80;99.90;;;;;;4990762;28;20211;-77
2022/08/08 14:22:24;;;;;;;3.67;1.15;;;22.80;99.90;;;;;;4986604;28;20192;-78
2022/08/08 14:25:09;;;;;;;1.90;0.80;;;22.70;99.90;;;;;;5011946;28;20243;-78
2022/08/08 14:27:53;;;;;;;2.58;0.73;;;22.70;99.90;;;;;;4997444;28;20196;-79
2022/08/08 14:30:37;;;;;;;2.15;1.00;;;22.70;99.90;;;;;;4994356;28;20223;-77
2022/08/08 14:33:27;;;;;;;1.17;0.82;;;22.70;99.90;;;;;;4991471;28;20200;-78
2022/08/08 14:36:12;;;;;;;3.72;0.93;;;22.80;99.90;;;;;;4993821;28;20630;-79
2022/08/08 14:38:57;;;;;;;2.47;1.17;;;22.90;99.90;;;;;;5011077;28;20711;-79
2022/08/08 14:41:43;;;;;;;2.97;1.10;;;22.90;99.90;;;;;;4993325;28;20291;-78
2022/08/08 14:44:29;;;;;;;2.95;0.80;;;22.90;99.90;;;;;;4987049;28;20195;-78
2022/08/08 14:47:14;;;;;;;1.08;0.80;;;22.90;99.90;;;;;;5009522;28;20288;-77
2022/08/08 14:50:04;;;;;;;3.20;1.00;;;22.90;99.90;;;;;;4990786;28;20213;-78
2022/08/08 14:52:51;;;;;;;0.77;0.70;;;23.00;99.90;;;;;;4990618;28;20639;-78
2022/08/08 14:55:37;;;;;;;3.33;1.02;;;23.00;99.90;;;;;;4994052;28;20242;-77
2022/08/08 14:58:21;;;;;;;3.17;1.00;;;22.90;99.90;;;;;;5003494;28;20199;-78
2022/08/08 15:01:06;;;;;;;1.45;0.68;;;22.90;99.90;;;;;;4992282;28;20220;-77
2022/08/08 15:03:50;;;;;;;2.72;1.10;;;22.90;99.90;;;;;;4992084;28;20312;-78
2022/08/08 15:06:34;;;;;;;2.30;0.70;;;22.80;99.90;;;;;;4992596;28;20613;-77
2022/08/08 15:09:20;;;;;;;1.17;0.68;;;22.80;99.90;;;;;;4994145;28;20192;-78
2022/08/08 15:12:05;;;;;;;1.67;1.27;;;22.80;99.90;;;;;;4992734;28;20196;-77
2022/08/08 15:14:49;;;;;;;5.65;1.00;;;22.90;99.90;;;;;;5009717;28;20251;-76
2022/08/08 15:17:33;;;;;;;1.25;0.90;;;22.90;99.90;;;;;;5005081;28;20204;-77
2022/08/08 15:20:17;;;;;;;4.70;1.00;;;22.80;99.90;;;;;;4991274;28;20216;-77
2022/08/08 15:23:02;;;;;;;2.20;1.00;;;22.90;99.90;;;;;;4994620;28;20235;-78